sensor_id;sensor_type;location;lat;lon;timestamp;pressure;altitude;pressure_sealevel;temperature;humidity
74633;BME280;63139;52.018;8.552;2023-04-03T00:01:12;101964.34;;;2.26;69.63
74633;BME280;63139;52.018;8.552;2023-04-03T00:03:40;101963.56;;;2.24;69.43
74633;BME280;63139;52.018;8.552;2023-04-03T00:06:11;101968.09;;;2.20;69.31
74633;BME280;63139;52.018;8.552;2023-04-03T00:08:39;101963.88;;;2.18;68.86
74633;BME280;63139;52.018;8.552;2023-04-03T00:11:08;101964.03;;;2.15;69.45
74633;BME280;63139;52.018;8.552;2023-04-03T00:13:36;101961.72;;;2.09;69.02
74633;BME280;63139;52.018;8.552;2023-04-03T00:16:05;101969.88;;;2.03;69.65
74633;BME280;63139;52.018;8.552;2023-04-03T00:18:33;101972.47;;;2.03;69.53
74633;BME280;63139;52.018;8.552;2023-04-03T00:21:02;101960.81;;;1.92;69.82
74633;BME280;63139;52.018;8.552;2023-04-03T00:23:31;101969.56;;;1.91;69.73
74633;BME280;63139;52.018;8.552;2023-04-03T00:25:59;101969.69;;;1.88;69.92
74633;BME280;63139;52.018;8.552;2023-04-03T00:28:27;101975.84;;;1.87;70.17
74633;BME280;63139;52.018;8.552;2023-04-03T00:30:55;101981.13;;;1.86;69.88
74633;BME280;63139;52.018;8.552;2023-04-03T00:33:23;101976.94;;;1.83;70.20
74633;BME280;63139;52.018;8.552;2023-04-03T00:35:51;101983.13;;;1.81;70.57
74633;BME280;63139;52.018;8.552;2023-04-03T00:38:19;101984.22;;;1.77;70.08
74633;BME280;63139;52.018;8.552;2023-04-03T00:40:52;101982.66;;;1.73;70.50
74633;BME280;63139;52.018;8.552;2023-04-03T00:43:22;101981.81;;;1.72;70.74
74633;BME280;63139;52.018;8.552;2023-04-03T00:45:51;101985.56;;;1.67;70.16
74633;BME280;63139;52.018;8.552;2023-04-03T00:48:22;101985.63;;;1.65;70.88
74633;BME280;63139;52.018;8.552;2023-04-03T00:50:51;101991.94;;;1.61;71.18
74633;BME280;63139;52.018;8.552;2023-04-03T00:53:23;101985.03;;;1.60;70.63
74633;BME280;63139;52.018;8.552;2023-04-03T00:55:55;101992.06;;;1.58;71.09
74633;BME280;63139;52.018;8.552;2023-04-03T00:58:27;101990.47;;;1.55;70.83
74633;BME280;63139;52.018;8.552;2023-04-03T01:00:58;101990.59;;;1.52;71.21
74633;BME280;63139;52.018;8.552;2023-04-03T01:03:26;101992.59;;;1.47;71.00
74633;BME280;63139;52.018;8.552;2023-04-03T01:05:54;101997.16;;;1.42;71.16
74633;BME280;63139;52.018;8.552;2023-04-03T01:08:22;101998.16;;;1.40;71.13
74633;BME280;63139;52.018;8.552;2023-04-03T01:10:50;102001.88;;;1.34;71.16
74633;BME280;63139;52.018;8.552;2023-04-03T01:13:24;101996.84;;;1.31;71.28
74633;BME280;63139;52.018;8.552;2023-04-03T01:15:52;102000.41;;;1.29;71.51
74633;BME280;63139;52.018;8.552;2023-04-03T01:18:21;102000.41;;;1.29;72.02
74633;BME280;63139;52.018;8.552;2023-04-03T01:21:24;101998.78;;;1.26;71.33
74633;BME280;63139;52.018;8.552;2023-04-03T01:24:04;102002.47;;;1.22;71.40
74633;BME280;63139;52.018;8.552;2023-04-03T01:26:34;102000.09;;;1.17;71.72
74633;BME280;63139;52.018;8.552;2023-04-03T01:29:03;102006.41;;;1.12;71.65
74633;BME280;63139;52.018;8.552;2023-04-03T01:31:43;102001.34;;;1.09;72.15
74633;BME280;63139;52.018;8.552;2023-04-03T01:34:12;101998.06;;;1.04;72.67
74633;BME280;63139;52.018;8.552;2023-04-03T01:36:39;102000.00;;;1.00;72.30
74633;BME280;63139;52.018;8.552;2023-04-03T01:39:08;102011.28;;;1.01;72.42
74633;BME280;63139;52.018;8.552;2023-04-03T01:41:35;102002.72;;;0.97;72.33
74633;BME280;63139;52.018;8.552;2023-04-03T01:44:15;102003.00;;;0.91;71.92
74633;BME280;63139;52.018;8.552;2023-04-03T01:46:45;102001.53;;;0.86;72.48
74633;BME280;63139;52.018;8.552;2023-04-03T01:49:13;102016.53;;;0.81;72.29
74633;BME280;63139;52.018;8.552;2023-04-03T01:51:41;102013.25;;;0.75;73.31
74633;BME280;63139;52.018;8.552;2023-04-03T01:54:09;102018.69;;;0.71;72.71
74633;BME280;63139;52.018;8.552;2023-04-03T01:56:36;102019.72;;;0.67;73.56
74633;BME280;63139;52.018;8.552;2023-04-03T01:59:06;102016.34;;;0.65;73.23
74633;BME280;63139;52.018;8.552;2023-04-03T02:01:34;102013.03;;;0.61;73.64
74633;BME280;63139;52.018;8.552;2023-04-03T02:04:04;102016.69;;;0.57;73.28
74633;BME280;63139;52.018;8.552;2023-04-03T02:06:32;102015.19;;;0.52;73.76
74633;BME280;63139;52.018;8.552;2023-04-03T02:09:01;102016.22;;;0.48;73.47
74633;BME280;63139;52.018;8.552;2023-04-03T02:11:29;102015.53;;;0.44;73.99
74633;BME280;63139;52.018;8.552;2023-04-03T02:13:57;102020.91;;;0.39;73.68
74633;BME280;63139;52.018;8.552;2023-04-03T02:16:25;102014.22;;;0.34;73.74
74633;BME280;63139;52.018;8.552;2023-04-03T02:18:53;102012.63;;;0.30;74.03
74633;BME280;63139;52.018;8.552;2023-04-03T02:21:22;102012.84;;;0.25;74.21
74633;BME280;63139;52.018;8.552;2023-04-03T02:23:50;102015.63;;;0.21;74.45
74633;BME280;63139;52.018;8.552;2023-04-03T02:26:18;102016.72;;;0.15;74.58
74633;BME280;63139;52.018;8.552;2023-04-03T02:28:46;102016.06;;;0.10;74.74
74633;BME280;63139;52.018;8.552;2023-04-03T02:31:16;102024.94;;;0.06;74.93
74633;BME280;63139;52.018;8.552;2023-04-03T02:33:45;102027.69;;;0.02;74.69
74633;BME280;63139;52.018;8.552;2023-04-03T02:36:14;102030.50;;;-0.03;74.62
74633;BME280;63139;52.018;8.552;2023-04-03T02:38:48;102033.34;;;-0.09;74.86
74633;BME280;63139;52.018;8.552;2023-04-03T02:41:16;102027.47;;;-0.14;75.24
74633;BME280;63139;52.018;8.552;2023-04-03T02:43:44;102021.66;;;-0.21;75.23
74633;BME280;63139;52.018;8.552;2023-04-03T02:46:12;102018.41;;;-0.26;75.41
74633;BME280;63139;52.018;8.552;2023-04-03T02:48:41;102028.16;;;-0.31;76.01
74633;BME280;63139;52.018;8.552;2023-04-03T02:51:09;102027.56;;;-0.37;75.83
74633;BME280;63139;52.018;8.552;2023-04-03T02:53:37;102019.97;;;-0.44;75.90
74633;BME280;63139;52.018;8.552;2023-04-03T02:56:12;102026.09;;;-0.45;75.78
74633;BME280;63139;52.018;8.552;2023-04-03T02:58:39;102027.16;;;-0.50;75.98
74633;BME280;63139;52.018;8.552;2023-04-03T03:01:08;102024.75;;;-0.55;76.65
74633;BME280;63139;52.018;8.552;2023-04-03T03:03:36;102026.69;;;-0.60;76.45
74633;BME280;63139;52.018;8.552;2023-04-03T03:06:05;102025.09;;;-0.64;76.41
74633;BME280;63139;52.018;8.552;2023-04-03T03:08:34;102027.84;;;-0.67;77.29
74633;BME280;63139;52.018;8.552;2023-04-03T03:11:02;102030.47;;;-0.68;76.85
74633;BME280;63139;52.018;8.552;2023-04-03T03:13:32;102029.69;;;-0.70;77.81
74633;BME280;63139;52.018;8.552;2023-04-03T03:16:00;102028.88;;;-0.72;77.35
74633;BME280;63139;52.018;8.552;2023-04-03T03:18:28;102028.94;;;-0.74;77.92
74633;BME280;63139;52.018;8.552;2023-04-03T03:20:58;102034.28;;;-0.77;77.42
74633;BME280;63139;52.018;8.552;2023-04-03T03:23:28;102035.22;;;-0.80;77.88
74633;BME280;63139;52.018;8.552;2023-04-03T03:25:57;102037.09;;;-0.83;77.71
74633;BME280;63139;52.018;8.552;2023-04-03T03:28:26;102047.50;;;-0.83;78.63
74633;BME280;63139;52.018;8.552;2023-04-03T03:30:55;102020.25;;;-0.96;78.19
74633;BME280;63139;52.018;8.552;2023-04-03T03:33:25;102039.66;;;-0.82;79.03
74633;BME280;63139;52.018;8.552;2023-04-03T03:35:53;102045.66;;;-0.81;79.12
74633;BME280;63139;52.018;8.552;2023-04-03T03:38:21;102043.88;;;-0.79;78.99
74633;BME280;63139;52.018;8.552;2023-04-03T03:40:50;102043.63;;;-0.73;79.47
74633;BME280;63139;52.018;8.552;2023-04-03T03:43:20;102043.63;;;-0.73;79.04
74633;BME280;63139;52.018;8.552;2023-04-03T03:45:50;102032.53;;;-0.76;79.33
74633;BME280;63139;52.018;8.552;2023-04-03T03:48:20;102042.69;;;-0.70;79.44
74633;BME280;63139;52.018;8.552;2023-04-03T03:50:49;102041.88;;;-0.72;79.31
74633;BME280;63139;52.018;8.552;2023-04-03T03:53:19;102040.13;;;-0.72;79.02
74633;BME280;63139;52.018;8.552;2023-04-03T03:55:50;102041.13;;;-0.74;79.08
74633;BME280;63139;52.018;8.552;2023-04-03T03:58:20;102048.97;;;-0.76;78.85
74633;BME280;63139;52.018;8.552;2023-04-03T04:00:50;102048.22;;;-0.80;78.50
74633;BME280;63139;52.018;8.552;2023-04-03T04:03:17;102038.00;;;-0.84;78.73
74633;BME280;63139;52.018;8.552;2023-04-03T04:05:48;102048.50;;;-0.87;79.11
74633;BME280;63139;52.018;8.552;2023-04-03T04:08:17;102052.94;;;-0.89;78.93
74633;BME280;63139;52.018;8.552;2023-04-03T04:10:45;102044.56;;;-0.97;79.40
74633;BME280;63139;52.018;8.552;2023-04-03T04:13:15;102055.81;;;-0.97;79.05
74633;BME280;63139;52.018;8.552;2023-04-03T04:15:44;102058.59;;;-1.03;79.21
74633;BME280;63139;52.018;8.552;2023-04-03T04:18:13;102063.94;;;-1.06;79.91
74633;BME280;63139;52.018;8.552;2023-04-03T04:20:44;102056.22;;;-1.09;80.22
74633;BME280;63139;52.018;8.552;2023-04-03T04:23:15;102067.41;;;-1.07;80.25
74633;BME280;63139;52.018;8.552;2023-04-03T04:25:44;102070.03;;;-1.07;80.38
74633;BME280;63139;52.018;8.552;2023-04-03T04:28:13;102065.81;;;-1.11;80.32
74633;BME280;63139;52.018;8.552;2023-04-03T04:30:41;102067.50;;;-1.10;80.39
74633;BME280;63139;52.018;8.552;2023-04-03T04:33:09;102073.47;;;-1.06;81.00
74633;BME280;63139;52.018;8.552;2023-04-03T04:35:38;102073.47;;;-1.06;80.50
74633;BME280;63139;52.018;8.552;2023-04-03T04:38:06;102068.31;;;-1.08;80.55
74633;BME280;63139;52.018;8.552;2023-04-03T04:40:36;102074.19;;;-1.03;80.79
74633;BME280;63139;52.018;8.552;2023-04-03T04:43:05;102068.13;;;-1.03;80.13
74633;BME280;63139;52.018;8.552;2023-04-03T04:45:34;102069.00;;;-1.03;80.45
74633;BME280;63139;52.018;8.552;2023-04-03T04:48:02;102061.94;;;-0.99;80.73
74633;BME280;63139;52.018;8.552;2023-04-03T04:50:30;102068.84;;;-0.98;80.87
74633;BME280;63139;52.018;8.552;2023-04-03T04:52:58;102074.03;;;-0.98;80.13
74633;BME280;63139;52.018;8.552;2023-04-03T04:55:26;102060.25;;;-1.00;80.25
74633;BME280;63139;52.018;8.552;2023-04-03T04:57:56;102066.25;;;-0.98;80.40
74633;BME280;63139;52.018;8.552;2023-04-03T05:00:24;102067.16;;;-0.99;80.41
74633;BME280;63139;52.018;8.552;2023-04-03T05:02:52;102082.84;;;-1.02;80.51
74633;BME280;63139;52.018;8.552;2023-04-03T05:05:21;102084.72;;;-1.06;80.05
74633;BME280;63139;52.018;8.552;2023-04-03T05:07:49;102090.84;;;-1.08;79.80
74633;BME280;63139;52.018;8.552;2023-04-03T05:10:17;102091.75;;;-1.09;79.80
74633;BME280;63139;52.018;8.552;2023-04-03T05:12:45;102090.13;;;-1.12;79.98
74633;BME280;63139;52.018;8.552;2023-04-03T05:15:15;102090.13;;;-1.12;80.56
74633;BME280;63139;52.018;8.552;2023-04-03T05:17:43;102092.78;;;-1.13;80.77
74633;BME280;63139;52.018;8.552;2023-04-03T05:20:13;102092.78;;;-1.13;80.92
74633;BME280;63139;52.018;8.552;2023-04-03T05:22:43;102098.88;;;-1.14;80.25
74633;BME280;63139;52.018;8.552;2023-04-03T05:25:11;102091.97;;;-1.15;80.49
74633;BME280;63139;52.018;8.552;2023-04-03T05:27:42;102098.88;;;-1.14;80.78
74633;BME280;63139;52.018;8.552;2023-04-03T05:30:11;102099.75;;;-1.15;80.75
74633;BME280;63139;52.018;8.552;2023-04-03T05:32:42;102107.47;;;-1.12;80.90
74633;BME280;63139;52.018;8.552;2023-04-03T05:35:26;102111.69;;;-1.10;80.84
74633;BME280;63139;52.018;8.552;2023-04-03T05:37:57;102109.94;;;-1.09;80.57
74633;BME280;63139;52.018;8.552;2023-04-03T05:40:25;102121.13;;;-1.07;81.18
74633;BME280;63139;52.018;8.552;2023-04-03T05:42:55;102120.09;;;-1.03;80.64
74633;BME280;63139;52.018;8.552;2023-04-03T05:45:25;102116.47;;;-0.98;81.29
74633;BME280;63139;52.018;8.552;2023-04-03T05:47:54;102123.16;;;-0.91;81.08
74633;BME280;63139;52.018;8.552;2023-04-03T05:50:22;102122.06;;;-0.85;80.96
74633;BME280;63139;52.018;8.552;2023-04-03T05:52:54;102128.81;;;-0.80;81.13
74633;BME280;63139;52.018;8.552;2023-04-03T05:55:24;102132.84;;;-0.71;80.56
74633;BME280;63139;52.018;8.552;2023-04-03T05:57:53;102123.06;;;-0.64;80.53
74633;BME280;63139;52.018;8.552;2023-04-03T06:00:21;102133.19;;;-0.57;79.74
74633;BME280;63139;52.018;8.552;2023-04-03T06:02:59;102139.84;;;-0.50;80.16
74633;BME280;63139;52.018;8.552;2023-04-03T06:05:28;102138.75;;;-0.44;79.40
74633;BME280;63139;52.018;8.552;2023-04-03T06:07:56;102145.50;;;-0.38;79.21
74633;BME280;63139;52.018;8.552;2023-04-03T06:10:24;102150.44;;;-0.31;79.30
74633;BME280;63139;52.018;8.552;2023-04-03T06:12:52;102144.94;;;-0.23;78.81
74633;BME280;63139;52.018;8.552;2023-04-03T06:15:20;102155.06;;;-0.16;78.44
74633;BME280;63139;52.018;8.552;2023-04-03T06:17:48;102149.00;;;-0.16;78.42
74633;BME280;63139;52.018;8.552;2023-04-03T06:20:18;102158.88;;;-0.03;78.32
74633;BME280;63139;52.018;8.552;2023-04-03T06:22:46;102160.28;;;0.06;77.58
74633;BME280;63139;52.018;8.552;2023-04-03T06:25:13;102160.97;;;0.11;77.32
74633;BME280;63139;52.018;8.552;2023-04-03T06:27:44;102164.13;;;0.19;77.57
74633;BME280;63139;52.018;8.552;2023-04-03T06:30:12;102156.06;;;0.25;77.20
74633;BME280;63139;52.018;8.552;2023-04-03T06:32:40;102165.38;;;0.31;77.17
74633;BME280;63139;52.018;8.552;2023-04-03T06:35:09;102160.75;;;0.37;76.97
74633;BME280;63139;52.018;8.552;2023-04-03T06:37:38;102164.16;;;0.39;75.90
74633;BME280;63139;52.018;8.552;2023-04-03T06:40:09;102158.78;;;0.44;75.61
74633;BME280;63139;52.018;8.552;2023-04-03T06:42:41;102159.25;;;0.54;76.05
74633;BME280;63139;52.018;8.552;2023-04-03T06:45:11;102165.06;;;0.60;75.68
74633;BME280;63139;52.018;8.552;2023-04-03T06:47:39;102163.88;;;0.67;75.48
74633;BME280;63139;52.018;8.552;2023-04-03T06:50:08;102167.03;;;0.75;74.86
74633;BME280;63139;52.018;8.552;2023-04-03T06:52:39;102161.56;;;0.82;75.05
74633;BME280;63139;52.018;8.552;2023-04-03T06:55:08;102161.31;;;0.88;74.64
74633;BME280;63139;52.018;8.552;2023-04-03T06:57:36;102162.94;;;0.90;73.12
74633;BME280;63139;52.018;8.552;2023-04-03T07:00:06;102175.31;;;1.05;72.77
74633;BME280;63139;52.018;8.552;2023-04-03T07:02:35;102174.09;;;1.14;72.81
74633;BME280;63139;52.018;8.552;2023-04-03T07:05:04;102169.44;;;1.21;71.96
74633;BME280;63139;52.018;8.552;2023-04-03T07:07:32;102172.47;;;1.32;71.95
74633;BME280;63139;52.018;8.552;2023-04-03T07:10:02;102192.91;;;1.41;71.26
74633;BME280;63139;52.018;8.552;2023-04-03T07:12:30;102187.34;;;1.48;70.63
74633;BME280;63139;52.018;8.552;2023-04-03T07:14:57;102190.47;;;1.56;71.07
74633;BME280;63139;52.018;8.552;2023-04-03T07:17:25;102196.19;;;1.65;69.86
74633;BME280;63139;52.018;8.552;2023-04-03T07:19:53;102196.78;;;1.71;68.59
74633;BME280;63139;52.018;8.552;2023-04-03T07:22:21;102196.38;;;1.80;68.18
74633;BME280;63139;52.018;8.552;2023-04-03T07:24:49;102190.66;;;1.91;68.11
74633;BME280;63139;52.018;8.552;2023-04-03T07:27:18;102199.00;;;1.99;66.54
74633;BME280;63139;52.018;8.552;2023-04-03T07:29:46;102203.09;;;2.05;65.43
74633;BME280;63139;52.018;8.552;2023-04-03T07:32:15;102204.44;;;2.13;64.33
74633;BME280;63139;52.018;8.552;2023-04-03T07:34:44;102212.66;;;2.23;63.96
74633;BME280;63139;52.018;8.552;2023-04-03T07:37:11;102207.06;;;2.30;61.99
74633;BME280;63139;52.018;8.552;2023-04-03T07:39:39;102193.75;;;2.37;60.83
74633;BME280;63139;52.018;8.552;2023-04-03T07:42:08;102207.13;;;2.48;61.15
74633;BME280;63139;52.018;8.552;2023-04-03T07:44:37;102206.47;;;2.61;62.17
74633;BME280;63139;52.018;8.552;2023-04-03T07:47:05;102213.94;;;2.69;61.22
74633;BME280;63139;52.018;8.552;2023-04-03T07:49:33;102219.50;;;2.80;61.29
74633;BME280;63139;52.018;8.552;2023-04-03T07:52:04;102213.91;;;2.88;60.01
74633;BME280;63139;52.018;8.552;2023-04-03T07:54:33;102224.72;;;2.97;60.40
74633;BME280;63139;52.018;8.552;2023-04-03T07:57:01;102221.59;;;3.08;59.61
74633;BME280;63139;52.018;8.552;2023-04-03T07:59:29;102217.03;;;3.11;58.10
74633;BME280;63139;52.018;8.552;2023-04-03T08:01:58;102222.75;;;3.20;57.32
74633;BME280;63139;52.018;8.552;2023-04-03T08:04:26;102214.75;;;3.23;57.88
74633;BME280;63139;52.018;8.552;2023-04-03T08:06:54;102209.78;;;3.34;57.71
74633;BME280;63139;52.018;8.552;2023-04-03T08:09:21;102215.88;;;3.34;56.61
74633;BME280;63139;52.018;8.552;2023-04-03T08:11:49;102212.78;;;3.43;57.04
74633;BME280;63139;52.018;8.552;2023-04-03T08:14:20;102214.34;;;3.47;57.60
74633;BME280;63139;52.018;8.552;2023-04-03T08:16:48;102220.25;;;3.51;56.48
74633;BME280;63139;52.018;8.552;2023-04-03T08:19:17;102216.72;;;3.52;55.08
74633;BME280;63139;52.018;8.552;2023-04-03T08:21:52;102226.53;;;3.64;55.35
74633;BME280;63139;52.018;8.552;2023-04-03T08:24:19;102224.03;;;3.63;55.17
74633;BME280;63139;52.018;8.552;2023-04-03T08:26:47;102221.00;;;3.70;56.09
74633;BME280;63139;52.018;8.552;2023-04-03T08:29:15;102228.69;;;3.73;55.94
74633;BME280;63139;52.018;8.552;2023-04-03T08:31:43;102217.13;;;3.77;56.22
74633;BME280;63139;52.018;8.552;2023-04-03T08:34:11;102247.38;;;3.83;57.31
74633;BME280;63139;52.018;8.552;2023-04-03T08:36:42;102215.16;;;3.81;56.32
74633;BME280;63139;52.018;8.552;2023-04-03T08:39:10;102218.16;;;3.90;56.75
74633;BME280;63139;52.018;8.552;2023-04-03T08:41:39;102231.00;;;3.95;57.06
74633;BME280;63139;52.018;8.552;2023-04-03T08:44:18;102235.38;;;3.95;56.26
74633;BME280;63139;52.018;8.552;2023-04-03T08:46:56;102242.25;;;3.97;56.34
74633;BME280;63139;52.018;8.552;2023-04-03T08:49:30;102228.75;;;4.05;56.84
74633;BME280;63139;52.018;8.552;2023-04-03T08:52:04;102229.31;;;4.10;56.04
74633;BME280;63139;52.018;8.552;2023-04-03T08:54:34;102223.31;;;4.08;55.92
74633;BME280;63139;52.018;8.552;2023-04-03T08:57:04;102217.75;;;4.14;56.51
74633;BME280;63139;52.018;8.552;2023-04-03T08:59:34;102223.84;;;4.14;54.75
74633;BME280;63139;52.018;8.552;2023-04-03T09:02:10;102220.38;;;4.14;55.74
74633;BME280;63139;52.018;8.552;2023-04-03T09:04:40;102221.75;;;4.21;55.63
74633;BME280;63139;52.018;8.552;2023-04-03T09:07:23;102224.59;;;4.16;54.78
74633;BME280;63139;52.018;8.552;2023-04-03T09:09:53;102220.19;;;4.17;53.89
74633;BME280;63139;52.018;8.552;2023-04-03T09:12:25;102217.34;;;4.21;55.66
74633;BME280;63139;52.018;8.552;2023-04-03T09:15:00;102220.97;;;4.35;55.22
74633;BME280;63139;52.018;8.552;2023-04-03T09:17:38;102212.09;;;4.37;53.80
74633;BME280;63139;52.018;8.552;2023-04-03T09:20:17;102207.16;;;4.47;54.68
74633;BME280;63139;52.018;8.552;2023-04-03T09:22:51;102217.59;;;4.48;53.32
74633;BME280;63139;52.018;8.552;2023-04-03T09:25:22;102211.06;;;4.55;55.06
74633;BME280;63139;52.018;8.552;2023-04-03T09:27:50;102217.16;;;4.56;54.49
74633;BME280;63139;52.018;8.552;2023-04-03T09:30:20;102222.97;;;4.61;53.49
74633;BME280;63139;52.018;8.552;2023-04-03T09:32:50;102203.16;;;4.71;53.53
74633;BME280;63139;52.018;8.552;2023-04-03T09:35:24;102218.75;;;4.74;53.62
74633;BME280;63139;52.018;8.552;2023-04-03T09:38:20;102210.75;;;4.76;51.96
74633;BME280;63139;52.018;8.552;2023-04-03T09:40:49;102208.81;;;4.79;52.12
74633;BME280;63139;52.018;8.552;2023-04-03T09:43:25;102222.28;;;4.89;51.93
74633;BME280;63139;52.018;8.552;2023-04-03T09:45:53;102204.03;;;5.01;52.50
74633;BME280;63139;52.018;8.552;2023-04-03T09:48:23;102211.09;;;5.15;52.60
74633;BME280;63139;52.018;8.552;2023-04-03T09:50:54;102199.69;;;5.30;53.05
74633;BME280;63139;52.018;8.552;2023-04-03T09:53:30;102201.22;;;5.63;51.68
74633;BME280;63139;52.018;8.552;2023-04-03T09:55:58;102196.22;;;5.72;52.01
74633;BME280;63139;52.018;8.552;2023-04-03T09:58:28;102199.91;;;5.84;50.51
74633;BME280;63139;52.018;8.552;2023-04-03T10:01:23;102197.41;;;6.23;50.46
74633;BME280;63139;52.018;8.552;2023-04-03T10:04:06;102191.97;;;6.53;49.97
74633;BME280;63139;52.018;8.552;2023-04-03T10:06:36;102190.91;;;6.83;49.82
74633;BME280;63139;52.018;8.552;2023-04-03T10:09:17;102199.28;;;7.15;47.07
74633;BME280;63139;52.018;8.552;2023-04-03T10:12:00;102175.06;;;7.22;45.89
74633;BME280;63139;52.018;8.552;2023-04-03T10:14:29;102176.09;;;7.20;46.94
74633;BME280;63139;52.018;8.552;2023-04-03T10:17:05;102187.63;;;7.31;46.06
74633;BME280;63139;52.018;8.552;2023-04-03T10:19:39;102178.22;;;7.53;46.46
74633;BME280;63139;52.018;8.552;2023-04-03T10:22:17;102184.13;;;7.44;46.83
74633;BME280;63139;52.018;8.552;2023-04-03T10:24:53;102165.59;;;7.45;47.41
74633;BME280;63139;52.018;8.552;2023-04-03T10:27:32;102176.88;;;7.47;46.01
74633;BME280;63139;52.018;8.552;2023-04-03T10:30:12;102175.19;;;7.33;47.34
74633;BME280;63139;52.018;8.552;2023-04-03T10:32:53;102172.75;;;7.43;45.42
74633;BME280;63139;52.018;8.552;2023-04-03T10:35:33;102169.78;;;7.10;45.81
74633;BME280;63139;52.018;8.552;2023-04-03T10:38:09;102148.59;;;6.98;45.87
74633;BME280;63139;52.018;8.552;2023-04-03T10:40:47;102164.72;;;6.94;47.20
74633;BME280;63139;52.018;8.552;2023-04-03T10:43:25;102167.34;;;7.07;46.33
74633;BME280;63139;52.018;8.552;2023-04-03T10:46:00;102161.91;;;7.10;45.17
74633;BME280;63139;52.018;8.552;2023-04-03T10:48:50;102157.28;;;7.26;46.34
74633;BME280;63139;52.018;8.552;2023-04-03T10:51:25;102165.38;;;7.48;45.60
74633;BME280;63139;52.018;8.552;2023-04-03T10:53:57;102175.16;;;7.59;44.13
74633;BME280;63139;52.018;8.552;2023-04-03T10:56:35;102158.38;;;7.85;43.83
74633;BME280;63139;52.018;8.552;2023-04-03T10:59:14;102158.00;;;8.02;41.15
74633;BME280;63139;52.018;8.552;2023-04-03T11:02:07;102159.78;;;8.38;41.85
74633;BME280;63139;52.018;8.552;2023-04-03T11:04:42;102149.97;;;8.64;42.00
74633;BME280;63139;52.018;8.552;2023-04-03T11:07:16;102150.91;;;8.63;42.73
74633;BME280;63139;52.018;8.552;2023-04-03T11:09:47;102151.84;;;8.97;41.83
74633;BME280;63139;52.018;8.552;2023-04-03T11:12:23;102175.72;;;8.84;40.06
74633;BME280;63139;52.018;8.552;2023-04-03T11:14:55;102156.88;;;8.54;40.57
74633;BME280;63139;52.018;8.552;2023-04-03T11:17:29;102160.72;;;8.13;40.93
74633;BME280;63139;52.018;8.552;2023-04-03T11:20:04;102161.38;;;8.04;41.40
74633;BME280;63139;52.018;8.552;2023-04-03T11:22:36;102156.94;;;8.05;41.82
74633;BME280;63139;52.018;8.552;2023-04-03T11:25:15;102154.91;;;8.08;40.79
74633;BME280;63139;52.018;8.552;2023-04-03T11:27:51;102143.72;;;7.81;42.16
74633;BME280;63139;52.018;8.552;2023-04-03T11:30:22;102151.41;;;7.71;43.93
74633;BME280;63139;52.018;8.552;2023-04-03T11:33:32;102139.66;;;7.52;42.72
74633;BME280;63139;52.018;8.552;2023-04-03T11:36:05;102132.91;;;7.48;43.13
74633;BME280;63139;52.018;8.552;2023-04-03T11:38:55;102142.19;;;7.40;45.03
74633;BME280;63139;52.018;8.552;2023-04-03T11:41:26;102141.88;;;7.45;44.31
74633;BME280;63139;52.018;8.552;2023-04-03T11:43:59;102132.38;;;7.55;43.09
74633;BME280;63139;52.018;8.552;2023-04-03T11:46:55;102150.38;;;7.74;42.54
74633;BME280;63139;52.018;8.552;2023-04-03T11:49:52;102142.56;;;7.72;42.69
74633;BME280;63139;52.018;8.552;2023-04-03T11:55:51;102131.34;;;8.18;41.42
74633;BME280;63139;52.018;8.552;2023-04-03T11:58:20;102120.06;;;8.64;41.89
74633;BME280;63139;52.018;8.552;2023-04-03T12:00:54;102105.19;;;8.63;41.37
74633;BME280;63139;52.018;8.552;2023-04-03T12:09:58;102088.22;;;9.00;40.50
74633;BME280;63139;52.018;8.552;2023-04-03T12:12:30;102089.44;;;9.07;40.37
74633;BME280;63139;52.018;8.552;2023-04-03T12:15:17;102115.50;;;9.12;39.28
74633;BME280;63139;52.018;8.552;2023-04-03T12:17:47;102096.63;;;8.94;39.19
74633;BME280;63139;52.018;8.552;2023-04-03T12:20:52;102109.41;;;9.11;39.73
74633;BME280;63139;52.018;8.552;2023-04-03T12:23:31;102100.66;;;9.33;38.44
74633;BME280;63139;52.018;8.552;2023-04-03T12:26:06;102084.84;;;9.76;39.95
74633;BME280;63139;52.018;8.552;2023-04-03T12:28:50;102085.31;;;9.81;39.67
74633;BME280;63139;52.018;8.552;2023-04-03T12:31:22;102082.13;;;10.09;38.95
74633;BME280;63139;52.018;8.552;2023-04-03T12:34:04;102082.66;;;9.92;37.76
74633;BME280;63139;52.018;8.552;2023-04-03T12:36:42;102087.69;;;10.06;37.59
74633;BME280;63139;52.018;8.552;2023-04-03T12:39:26;102056.75;;;10.18;39.38
74633;BME280;63139;52.018;8.552;2023-04-03T12:42:14;102081.88;;;10.12;36.93
74633;BME280;63139;52.018;8.552;2023-04-03T12:44:52;102073.72;;;10.04;37.67
74633;BME280;63139;52.018;8.552;2023-04-03T12:47:28;102061.53;;;10.13;37.03
74633;BME280;63139;52.018;8.552;2023-04-03T12:50:01;102054.56;;;10.12;37.00
74633;BME280;63139;52.018;8.552;2023-04-03T12:52:37;102057.09;;;10.13;36.18
74633;BME280;63139;52.018;8.552;2023-04-03T12:55:13;102044.47;;;10.38;37.97
74633;BME280;63139;52.018;8.552;2023-04-03T12:57:41;102055.03;;;10.28;36.94
74633;BME280;63139;52.018;8.552;2023-04-03T13:00:30;102051.19;;;10.10;35.67
74633;BME280;63139;52.018;8.552;2023-04-03T13:02:59;102063.00;;;10.06;37.25
74633;BME280;63139;52.018;8.552;2023-04-03T13:05:29;102051.91;;;9.80;36.55
74633;BME280;63139;52.018;8.552;2023-04-03T13:08:02;102045.66;;;9.81;36.94
74633;BME280;63139;52.018;8.552;2023-04-03T13:10:32;102035.56;;;9.64;38.42
74633;BME280;63139;52.018;8.552;2023-04-03T13:13:10;102048.84;;;9.19;38.79
74633;BME280;63139;52.018;8.552;2023-04-03T13:15:43;102037.16;;;8.66;39.52
74633;BME280;63139;52.018;8.552;2023-04-03T13:18:29;102055.34;;;8.23;39.52
74633;BME280;63139;52.018;8.552;2023-04-03T13:21:03;102061.34;;;8.01;40.25
74633;BME280;63139;52.018;8.552;2023-04-03T13:23:35;102037.66;;;7.77;40.90
74633;BME280;63139;52.018;8.552;2023-04-03T13:26:04;102041.53;;;7.48;41.59
74633;BME280;63139;52.018;8.552;2023-04-03T13:28:33;102057.78;;;7.29;42.34
74633;BME280;63139;52.018;8.552;2023-04-03T13:31:07;102053.81;;;7.11;42.17